<?xml version="1.0" encoding="UTF-8" standalone="no" ?>
<gpx xmlns="http://www.topografix.com/GPX/1/1" xmlns:xsi="http://www.w3.org/2001/XMLSchema-instance" xsi:schemaLocation="http://www.topografix.com/GPX/1/1 http://www.topografix.com/GPX/1/1/gpx.xsd" version="1.1" creator="VisuGPX - https://www.visugpx.com">
  <metadata>
    <name>Sortie Moto</name>
  </metadata>
  <trk>
    <name><![CDATA[Journal actif: 2020-05-06 12:54]]></name>
    <trkseg>
      <trkpt lat="46.07432" lon="6.31472">
        <ele>510.6</ele>
        <time>2020-05-06T10:54:45Z</time>
      </trkpt>
      <trkpt lat="46.0743" lon="6.31462">
        <ele>522.61</ele>
        <time>2020-05-06T10:54:47Z</time>
      </trkpt>
      <trkpt lat="46.07429" lon="6.31464">
        <ele>524.06</ele>
        <time>2020-05-06T10:54:48Z</time>
      </trkpt>
      <trkpt lat="46.07428" lon="6.31465">
        <ele>525.02</ele>
        <time>2020-05-06T10:54:49Z</time>
      </trkpt>
      <trkpt lat="46.0743" lon="6.31469">
        <ele>526.94</ele>
        <time>2020-05-06T10:54:50Z</time>
      </trkpt>
      <trkpt lat="46.07433" lon="6.31473">
        <ele>526.94</ele>
        <time>2020-05-06T10:54:51Z</time>
      </trkpt>
      <trkpt lat="46.07428" lon="6.31465">
        <ele>525.98</ele>
        <time>2020-05-06T10:54:52Z</time>
      </trkpt>
      <trkpt lat="46.0743" lon="6.31462">
        <ele>525.98</ele>
        <time>2020-05-06T10:54:53Z</time>
      </trkpt>
      <trkpt lat="46.07443" lon="6.3147">
        <ele>525.98</ele>
        <time>2020-05-06T10:54:54Z</time>
      </trkpt>
      <trkpt lat="46.07448" lon="6.31462">
        <ele>526.46</ele>
        <time>2020-05-06T10:54:55Z</time>
      </trkpt>
      <trkpt lat="46.07451" lon="6.31455">
        <ele>526.46</ele>
        <time>2020-05-06T10:54:56Z</time>
      </trkpt>
      <trkpt lat="46.0745" lon="6.31445">
        <ele>526.46</ele>
        <time>2020-05-06T10:54:57Z</time>
      </trkpt>
      <trkpt lat="46.07449" lon="6.31435">
        <ele>526.46</ele>
        <time>2020-05-06T10:54:58Z</time>
      </trkpt>
      <trkpt lat="46.07444" lon="6.31425">
        <ele>526.94</ele>
        <time>2020-05-06T10:54:59Z</time>
      </trkpt>
      <trkpt lat="46.07439" lon="6.31414">
        <ele>526.94</ele>
        <time>2020-05-06T10:55:00Z</time>
      </trkpt>
      <trkpt lat="46.07443" lon="6.31379">
        <ele>526.94</ele>
        <time>2020-05-06T10:55:01Z</time>
      </trkpt>
      <trkpt lat="46.07443" lon="6.31379">
        <ele>526.94</ele>
        <time>2020-05-06T10:55:02Z</time>
      </trkpt>
      <trkpt lat="46.07444" lon="6.31362">
        <ele>526.94</ele>
        <time>2020-05-06T10:55:03Z</time>
      </trkpt>
      <trkpt lat="46.0744" lon="6.31351">
        <ele>527.42</ele>
        <time>2020-05-06T10:55:04Z</time>
      </trkpt>
      <trkpt lat="46.07434" lon="6.3134">
        <ele>527.42</ele>
        <time>2020-05-06T10:55:05Z</time>
      </trkpt>
      <trkpt lat="46.07428" lon="6.31334">
        <ele>527.42</ele>
        <time>2020-05-06T10:55:06Z</time>
      </trkpt>
      <trkpt lat="46.07419" lon="6.31333">
        <ele>527.42</ele>
        <time>2020-05-06T10:55:07Z</time>
      </trkpt>
      <trkpt lat="46.0741" lon="6.31333">
        <ele>526.94</ele>
        <time>2020-05-06T10:55:08Z</time>
      </trkpt>
      <trkpt lat="46.07402" lon="6.31341">
        <ele>526.94</ele>
        <time>2020-05-06T10:55:09Z</time>
      </trkpt>
      <trkpt lat="46.07396" lon="6.31353">
        <ele>527.42</ele>
        <time>2020-05-06T10:55:10Z</time>
      </trkpt>
      <trkpt lat="46.07394" lon="6.31364">
        <ele>526.94</ele>
        <time>2020-05-06T10:55:11Z</time>
      </trkpt>
      <trkpt lat="46.07397" lon="6.3138">
        <ele>526.46</ele>
        <time>2020-05-06T10:55:12Z</time>
      </trkpt>
      <trkpt lat="46.074" lon="6.31394">
        <ele>526.46</ele>
        <time>2020-05-06T10:55:13Z</time>
      </trkpt>
      <trkpt lat="46.07394" lon="6.31411">
        <ele>526.46</ele>
        <time>2020-05-06T10:55:14Z</time>
      </trkpt>
      <trkpt lat="46.07389" lon="6.31426">
        <ele>525.98</ele>
        <time>2020-05-06T10:55:15Z</time>
      </trkpt>
      <trkpt lat="46.07383" lon="6.31441">
        <ele>525.5</ele>
        <time>2020-05-06T10:55:16Z</time>
      </trkpt>
      <trkpt lat="46.07374" lon="6.31459">
        <ele>525.02</ele>
        <time>2020-05-06T10:55:17Z</time>
      </trkpt>
      <trkpt lat="46.07361" lon="6.31474">
        <ele>524.54</ele>
        <time>2020-05-06T10:55:18Z</time>
      </trkpt>
      <trkpt lat="46.07346" lon="6.3149">
        <ele>524.06</ele>
        <time>2020-05-06T10:55:19Z</time>
      </trkpt>
      <trkpt lat="46.07243" lon="6.31631">
        <ele>521.17</ele>
        <time>2020-05-06T10:55:25Z</time>
      </trkpt>
      <trkpt lat="46.07097" lon="6.31875">
        <ele>519.25</ele>
        <time>2020-05-06T10:55:34Z</time>
      </trkpt>
      <trkpt lat="46.07033" lon="6.32056">
        <ele>517.33</ele>
        <time>2020-05-06T10:55:40Z</time>
      </trkpt>
      <trkpt lat="46.07029" lon="6.32087">
        <ele>517.33</ele>
        <time>2020-05-06T10:55:41Z</time>
      </trkpt>
      <trkpt lat="46.07027" lon="6.32119">
        <ele>516.85</ele>
        <time>2020-05-06T10:55:42Z</time>
      </trkpt>
      <trkpt lat="46.07026" lon="6.3215">
        <ele>516.85</ele>
        <time>2020-05-06T10:55:43Z</time>
      </trkpt>
      <trkpt lat="46.07025" lon="6.32182">
        <ele>516.85</ele>
        <time>2020-05-06T10:55:44Z</time>
      </trkpt>
      <trkpt lat="46.07029" lon="6.32213">
        <ele>516.85</ele>
        <time>2020-05-06T10:55:45Z</time>
      </trkpt>
      <trkpt lat="46.07033" lon="6.32244">
        <ele>516.85</ele>
        <time>2020-05-06T10:55:46Z</time>
      </trkpt>
      <trkpt lat="46.07039" lon="6.32275">
        <ele>516.37</ele>
        <time>2020-05-06T10:55:47Z</time>
      </trkpt>
      <trkpt lat="46.07047" lon="6.32305">
        <ele>515.88</ele>
        <time>2020-05-06T10:55:48Z</time>
      </trkpt>
      <trkpt lat="46.071" lon="6.32557">
        <ele>507.23</ele>
        <time>2020-05-06T10:55:57Z</time>
      </trkpt>
      <trkpt lat="46.07113" lon="6.32711">
        <ele>500.98</ele>
        <time>2020-05-06T10:56:04Z</time>
      </trkpt>
      <trkpt lat="46.07114" lon="6.32727">
        <ele>500.02</ele>
        <time>2020-05-06T10:56:05Z</time>
      </trkpt>
      <trkpt lat="46.07114" lon="6.32739">
        <ele>499.06</ele>
        <time>2020-05-06T10:56:06Z</time>
      </trkpt>
      <trkpt lat="46.07108" lon="6.32761">
        <ele>497.14</ele>
        <time>2020-05-06T10:56:08Z</time>
      </trkpt>
      <trkpt lat="46.07111" lon="6.32772">
        <ele>496.18</ele>
        <time>2020-05-06T10:56:09Z</time>
      </trkpt>
      <trkpt lat="46.07117" lon="6.32781">
        <ele>495.7</ele>
        <time>2020-05-06T10:56:10Z</time>
      </trkpt>
      <trkpt lat="46.07125" lon="6.32782">
        <ele>495.7</ele>
        <time>2020-05-06T10:56:11Z</time>
      </trkpt>
      <trkpt lat="46.07133" lon="6.32778">
        <ele>495.7</ele>
        <time>2020-05-06T10:56:12Z</time>
      </trkpt>
      <trkpt lat="46.07136" lon="6.32776">
        <ele>496.18</ele>
        <time>2020-05-06T10:56:13Z</time>
      </trkpt>
      <trkpt lat="46.0715" lon="6.32754">
        <ele>496.66</ele>
        <time>2020-05-06T10:56:14Z</time>
      </trkpt>
      <trkpt lat="46.07161" lon="6.32744">
        <ele>496.66</ele>
        <time>2020-05-06T10:56:15Z</time>
      </trkpt>
      <trkpt lat="46.07171" lon="6.32733">
        <ele>496.18</ele>
        <time>2020-05-06T10:56:16Z</time>
      </trkpt>
      <trkpt lat="46.07216" lon="6.32664">
        <ele>492.81</ele>
        <time>2020-05-06T10:56:22Z</time>
      </trkpt>
      <trkpt lat="46.07221" lon="6.32657">
        <ele>492.33</ele>
        <time>2020-05-06T10:56:23Z</time>
      </trkpt>
      <trkpt lat="46.07225" lon="6.32651">
        <ele>491.85</ele>
        <time>2020-05-06T10:56:24Z</time>
      </trkpt>
      <trkpt lat="46.07235" lon="6.32647">
        <ele>491.85</ele>
        <time>2020-05-06T10:56:25Z</time>
      </trkpt>
      <trkpt lat="46.07234" lon="6.32638">
        <ele>491.37</ele>
        <time>2020-05-06T10:56:26Z</time>
      </trkpt>
      <trkpt lat="46.07224" lon="6.32634">
        <ele>490.89</ele>
        <time>2020-05-06T10:56:27Z</time>
      </trkpt>
      <trkpt lat="46.07221" lon="6.32629">
        <ele>490.41</ele>
        <time>2020-05-06T10:56:28Z</time>
      </trkpt>
      <trkpt lat="46.07215" lon="6.32621">
        <ele>490.41</ele>
        <time>2020-05-06T10:56:29Z</time>
      </trkpt>
      <trkpt lat="46.07209" lon="6.32611">
        <ele>490.89</ele>
        <time>2020-05-06T10:56:30Z</time>
      </trkpt>
      <trkpt lat="46.07204" lon="6.32599">
        <ele>491.37</ele>
        <time>2020-05-06T10:56:31Z</time>
      </trkpt>
      <trkpt lat="46.07198" lon="6.32587">
        <ele>491.85</ele>
        <time>2020-05-06T10:56:32Z</time>
      </trkpt>
      <trkpt lat="46.07195" lon="6.32574">
        <ele>492.81</ele>
        <time>2020-05-06T10:56:33Z</time>
      </trkpt>
      <trkpt lat="46.07193" lon="6.32558">
        <ele>493.77</ele>
        <time>2020-05-06T10:56:34Z</time>
      </trkpt>
      <trkpt lat="46.07191" lon="6.32542">
        <ele>494.74</ele>
        <time>2020-05-06T10:56:35Z</time>
      </trkpt>
      <trkpt lat="46.0719" lon="6.32527">
        <ele>495.22</ele>
        <time>2020-05-06T10:56:36Z</time>
      </trkpt>
      <trkpt lat="46.07188" lon="6.32518">
        <ele>496.18</ele>
        <time>2020-05-06T10:56:37Z</time>
      </trkpt>
      <trkpt lat="46.07186" lon="6.3251">
        <ele>496.18</ele>
        <time>2020-05-06T10:56:38Z</time>
      </trkpt>
      <trkpt lat="46.07185" lon="6.32506">
        <ele>497.14</ele>
        <time>2020-05-06T10:56:39Z</time>
      </trkpt>
      <trkpt lat="46.07175" lon="6.32506">
        <ele>497.62</ele>
        <time>2020-05-06T10:56:40Z</time>
      </trkpt>
      <trkpt lat="46.07173" lon="6.32513">
        <ele>498.1</ele>
        <time>2020-05-06T10:56:41Z</time>
      </trkpt>
      <trkpt lat="46.07169" lon="6.32522">
        <ele>498.58</ele>
        <time>2020-05-06T10:56:42Z</time>
      </trkpt>
      <trkpt lat="46.07165" lon="6.32532">
        <ele>499.54</ele>
        <time>2020-05-06T10:56:43Z</time>
      </trkpt>
      <trkpt lat="46.07162" lon="6.32539">
        <ele>500.02</ele>
        <time>2020-05-06T10:56:44Z</time>
      </trkpt>
      <trkpt lat="46.0716" lon="6.32544">
        <ele>500.98</ele>
        <time>2020-05-06T10:56:45Z</time>
      </trkpt>
      <trkpt lat="46.07159" lon="6.32548">
        <ele>501.46</ele>
        <time>2020-05-06T10:56:46Z</time>
      </trkpt>
      <trkpt lat="46.07158" lon="6.3255">
        <ele>501.95</ele>
        <time>2020-05-06T10:56:47Z</time>
      </trkpt>
      <trkpt lat="46.0715" lon="6.32559">
        <ele>502.43</ele>
        <time>2020-05-06T10:56:48Z</time>
      </trkpt>
      <trkpt lat="46.07157" lon="6.32552">
        <ele>502.43</ele>
        <time>2020-05-06T10:56:49Z</time>
      </trkpt>
      <trkpt lat="46.07157" lon="6.32552">
        <ele>502.91</ele>
        <time>2020-05-06T10:56:58Z</time>
      </trkpt>
      <trkpt lat="46.07166" lon="6.3255">
        <ele>497.62</ele>
        <time>2020-05-06T11:10:39Z</time>
      </trkpt>
      <trkpt lat="46.07165" lon="6.3255">
        <ele>510.6</ele>
        <time>2020-05-06T11:10:53Z</time>
      </trkpt>
      <trkpt lat="46.07157" lon="6.32551">
        <ele>510.6</ele>
        <time>2020-05-06T11:10:55Z</time>
      </trkpt>
      <trkpt lat="46.07155" lon="6.32558">
        <ele>510.12</ele>
        <time>2020-05-06T11:10:56Z</time>
      </trkpt>
      <trkpt lat="46.07147" lon="6.32594">
        <ele>506.75</ele>
        <time>2020-05-06T11:10:59Z</time>
      </trkpt>
      <trkpt lat="46.07138" lon="6.32613">
        <ele>505.79</ele>
        <time>2020-05-06T11:11:00Z</time>
      </trkpt>
      <trkpt lat="46.0713" lon="6.32602">
        <ele>505.31</ele>
        <time>2020-05-06T11:11:01Z</time>
      </trkpt>
      <trkpt lat="46.07136" lon="6.32622">
        <ele>504.35</ele>
        <time>2020-05-06T11:11:02Z</time>
      </trkpt>
      <trkpt lat="46.07132" lon="6.32638">
        <ele>503.39</ele>
        <time>2020-05-06T11:11:03Z</time>
      </trkpt>
      <trkpt lat="46.0713" lon="6.32657">
        <ele>501.95</ele>
        <time>2020-05-06T11:11:04Z</time>
      </trkpt>
      <trkpt lat="46.07133" lon="6.32686">
        <ele>500.02</ele>
        <time>2020-05-06T11:11:06Z</time>
      </trkpt>
      <trkpt lat="46.07139" lon="6.32698">
        <ele>499.54</ele>
        <time>2020-05-06T11:11:07Z</time>
      </trkpt>
      <trkpt lat="46.07146" lon="6.32705">
        <ele>498.1</ele>
        <time>2020-05-06T11:11:08Z</time>
      </trkpt>
      <trkpt lat="46.07154" lon="6.32712">
        <ele>497.62</ele>
        <time>2020-05-06T11:11:09Z</time>
      </trkpt>
      <trkpt lat="46.07163" lon="6.32707">
        <ele>496.18</ele>
        <time>2020-05-06T11:11:10Z</time>
      </trkpt>
      <trkpt lat="46.07169" lon="6.32701">
        <ele>494.74</ele>
        <time>2020-05-06T11:11:11Z</time>
      </trkpt>
      <trkpt lat="46.07177" lon="6.32695">
        <ele>493.77</ele>
        <time>2020-05-06T11:11:12Z</time>
      </trkpt>
      <trkpt lat="46.07183" lon="6.32686">
        <ele>492.81</ele>
        <time>2020-05-06T11:11:13Z</time>
      </trkpt>
      <trkpt lat="46.0719" lon="6.32673">
        <ele>492.33</ele>
        <time>2020-05-06T11:11:14Z</time>
      </trkpt>
      <trkpt lat="46.07196" lon="6.32663">
        <ele>491.85</ele>
        <time>2020-05-06T11:11:15Z</time>
      </trkpt>
      <trkpt lat="46.07201" lon="6.32653">
        <ele>491.37</ele>
        <time>2020-05-06T11:11:16Z</time>
      </trkpt>
      <trkpt lat="46.07207" lon="6.32643">
        <ele>491.37</ele>
        <time>2020-05-06T11:11:17Z</time>
      </trkpt>
      <trkpt lat="46.07207" lon="6.32635">
        <ele>491.37</ele>
        <time>2020-05-06T11:11:18Z</time>
      </trkpt>
      <trkpt lat="46.07208" lon="6.32627">
        <ele>491.37</ele>
        <time>2020-05-06T11:11:19Z</time>
      </trkpt>
      <trkpt lat="46.07208" lon="6.32624">
        <ele>491.37</ele>
        <time>2020-05-06T11:11:20Z</time>
      </trkpt>
      <trkpt lat="46.07215" lon="6.32621">
        <ele>490.89</ele>
        <time>2020-05-06T11:11:21Z</time>
      </trkpt>
      <trkpt lat="46.07218" lon="6.32625">
        <ele>490.89</ele>
        <time>2020-05-06T11:11:22Z</time>
      </trkpt>
      <trkpt lat="46.07224" lon="6.32634">
        <ele>490.41</ele>
        <time>2020-05-06T11:11:23Z</time>
      </trkpt>
      <trkpt lat="46.07225" lon="6.32641">
        <ele>490.41</ele>
        <time>2020-05-06T11:11:24Z</time>
      </trkpt>
      <trkpt lat="46.07222" lon="6.32656">
        <ele>489.93</ele>
        <time>2020-05-06T11:11:25Z</time>
      </trkpt>
      <trkpt lat="46.07216" lon="6.32664">
        <ele>489.93</ele>
        <time>2020-05-06T11:11:26Z</time>
      </trkpt>
      <trkpt lat="46.07209" lon="6.32675">
        <ele>489.93</ele>
        <time>2020-05-06T11:11:27Z</time>
      </trkpt>
      <trkpt lat="46.07201" lon="6.32687">
        <ele>489.45</ele>
        <time>2020-05-06T11:11:28Z</time>
      </trkpt>
      <trkpt lat="46.07156" lon="6.32748">
        <ele>491.37</ele>
        <time>2020-05-06T11:11:33Z</time>
      </trkpt>
      <trkpt lat="46.07147" lon="6.32757">
        <ele>491.37</ele>
        <time>2020-05-06T11:11:34Z</time>
      </trkpt>
      <trkpt lat="46.07142" lon="6.32759">
        <ele>491.85</ele>
        <time>2020-05-06T11:11:35Z</time>
      </trkpt>
      <trkpt lat="46.07136" lon="6.3275">
        <ele>492.81</ele>
        <time>2020-05-06T11:11:36Z</time>
      </trkpt>
      <trkpt lat="46.07129" lon="6.32745">
        <ele>493.29</ele>
        <time>2020-05-06T11:11:37Z</time>
      </trkpt>
      <trkpt lat="46.07124" lon="6.32734">
        <ele>493.29</ele>
        <time>2020-05-06T11:11:38Z</time>
      </trkpt>
      <trkpt lat="46.07122" lon="6.3272">
        <ele>494.26</ele>
        <time>2020-05-06T11:11:39Z</time>
      </trkpt>
      <trkpt lat="46.07121" lon="6.32703">
        <ele>494.74</ele>
        <time>2020-05-06T11:11:40Z</time>
      </trkpt>
      <trkpt lat="46.07119" lon="6.32682">
        <ele>495.22</ele>
        <time>2020-05-06T11:11:41Z</time>
      </trkpt>
      <trkpt lat="46.07099" lon="6.32506">
        <ele>500.5</ele>
        <time>2020-05-06T11:11:47Z</time>
      </trkpt>
      <trkpt lat="46.07048" lon="6.32307">
        <ele>509.16</ele>
        <time>2020-05-06T11:11:53Z</time>
      </trkpt>
      <trkpt lat="46.07026" lon="6.32193">
        <ele>513.48</ele>
        <time>2020-05-06T11:11:58Z</time>
      </trkpt>
      <trkpt lat="46.07025" lon="6.32174">
        <ele>513.96</ele>
        <time>2020-05-06T11:11:59Z</time>
      </trkpt>
      <trkpt lat="46.07025" lon="6.32158">
        <ele>514.44</ele>
        <time>2020-05-06T11:12:00Z</time>
      </trkpt>
      <trkpt lat="46.07027" lon="6.32119">
        <ele>515.4</ele>
        <time>2020-05-06T11:12:03Z</time>
      </trkpt>
      <trkpt lat="46.07027" lon="6.3211">
        <ele>515.4</ele>
        <time>2020-05-06T11:12:04Z</time>
      </trkpt>
      <trkpt lat="46.07019" lon="6.321">
        <ele>515.4</ele>
        <time>2020-05-06T11:12:05Z</time>
      </trkpt>
      <trkpt lat="46.07012" lon="6.32098">
        <ele>515.4</ele>
        <time>2020-05-06T11:12:06Z</time>
      </trkpt>
      <trkpt lat="46.07003" lon="6.32095">
        <ele>515.4</ele>
        <time>2020-05-06T11:12:07Z</time>
      </trkpt>
      <trkpt lat="46.06995" lon="6.32092">
        <ele>515.88</ele>
        <time>2020-05-06T11:12:08Z</time>
      </trkpt>
      <trkpt lat="46.06988" lon="6.3209">
        <ele>516.37</ele>
        <time>2020-05-06T11:12:09Z</time>
      </trkpt>
      <trkpt lat="46.0698" lon="6.32082">
        <ele>516.37</ele>
        <time>2020-05-06T11:12:10Z</time>
      </trkpt>
      <trkpt lat="46.06976" lon="6.32071">
        <ele>516.85</ele>
        <time>2020-05-06T11:12:11Z</time>
      </trkpt>
      <trkpt lat="46.06972" lon="6.32057">
        <ele>517.33</ele>
        <time>2020-05-06T11:12:12Z</time>
      </trkpt>
      <trkpt lat="46.06932" lon="6.31923">
        <ele>519.73</ele>
        <time>2020-05-06T11:12:20Z</time>
      </trkpt>
      <trkpt lat="46.06926" lon="6.31906">
        <ele>520.21</ele>
        <time>2020-05-06T11:12:21Z</time>
      </trkpt>
      <trkpt lat="46.06893" lon="6.31798">
        <ele>523.58</ele>
        <time>2020-05-06T11:12:27Z</time>
      </trkpt>
      <trkpt lat="46.06825" lon="6.3158">
        <ele>533.67</ele>
        <time>2020-05-06T11:12:39Z</time>
      </trkpt>
      <trkpt lat="46.06789" lon="6.3147">
        <ele>537.99</ele>
        <time>2020-05-06T11:12:46Z</time>
      </trkpt>
      <trkpt lat="46.06772" lon="6.31426">
        <ele>539.44</ele>
        <time>2020-05-06T11:12:49Z</time>
      </trkpt>
      <trkpt lat="46.0676" lon="6.31401">
        <ele>540.4</ele>
        <time>2020-05-06T11:12:51Z</time>
      </trkpt>
      <trkpt lat="46.06752" lon="6.3138">
        <ele>541.84</ele>
        <time>2020-05-06T11:12:53Z</time>
      </trkpt>
      <trkpt lat="46.06751" lon="6.31366">
        <ele>542.32</ele>
        <time>2020-05-06T11:12:54Z</time>
      </trkpt>
      <trkpt lat="46.06751" lon="6.31351">
        <ele>542.8</ele>
        <time>2020-05-06T11:12:55Z</time>
      </trkpt>
      <trkpt lat="46.0675" lon="6.31335">
        <ele>543.28</ele>
        <time>2020-05-06T11:12:56Z</time>
      </trkpt>
      <trkpt lat="46.06746" lon="6.3132">
        <ele>543.76</ele>
        <time>2020-05-06T11:12:57Z</time>
      </trkpt>
      <trkpt lat="46.06742" lon="6.31308">
        <ele>544.24</ele>
        <time>2020-05-06T11:12:58Z</time>
      </trkpt>
      <trkpt lat="46.06739" lon="6.31298">
        <ele>544.72</ele>
        <time>2020-05-06T11:12:59Z</time>
      </trkpt>
      <trkpt lat="46.06736" lon="6.3129">
        <ele>545.2</ele>
        <time>2020-05-06T11:13:00Z</time>
      </trkpt>
      <trkpt lat="46.06733" lon="6.31283">
        <ele>545.69</ele>
        <time>2020-05-06T11:13:01Z</time>
      </trkpt>
      <trkpt lat="46.06734" lon="6.31255">
        <ele>547.13</ele>
        <time>2020-05-06T11:13:03Z</time>
      </trkpt>
      <trkpt lat="46.06726" lon="6.31246">
        <ele>547.13</ele>
        <time>2020-05-06T11:13:04Z</time>
      </trkpt>
      <trkpt lat="46.06725" lon="6.31234">
        <ele>546.65</ele>
        <time>2020-05-06T11:13:05Z</time>
      </trkpt>
      <trkpt lat="46.06716" lon="6.31205">
        <ele>546.65</ele>
        <time>2020-05-06T11:13:07Z</time>
      </trkpt>
      <trkpt lat="46.06707" lon="6.31193">
        <ele>546.65</ele>
        <time>2020-05-06T11:13:08Z</time>
      </trkpt>
      <trkpt lat="46.06698" lon="6.31183">
        <ele>546.65</ele>
        <time>2020-05-06T11:13:09Z</time>
      </trkpt>
      <trkpt lat="46.06689" lon="6.31172">
        <ele>546.65</ele>
        <time>2020-05-06T11:13:10Z</time>
      </trkpt>
      <trkpt lat="46.0668" lon="6.31161">
        <ele>547.13</ele>
        <time>2020-05-06T11:13:11Z</time>
      </trkpt>
      <trkpt lat="46.06653" lon="6.31136">
        <ele>548.09</ele>
        <time>2020-05-06T11:13:14Z</time>
      </trkpt>
      <trkpt lat="46.06613" lon="6.31108">
        <ele>548.09</ele>
        <time>2020-05-06T11:13:19Z</time>
      </trkpt>
      <trkpt lat="46.06607" lon="6.31104">
        <ele>547.61</ele>
        <time>2020-05-06T11:13:20Z</time>
      </trkpt>
      <trkpt lat="46.06602" lon="6.31101">
        <ele>547.13</ele>
        <time>2020-05-06T11:13:21Z</time>
      </trkpt>
      <trkpt lat="46.06598" lon="6.31095">
        <ele>546.65</ele>
        <time>2020-05-06T11:13:22Z</time>
      </trkpt>
      <trkpt lat="46.066" lon="6.31082">
        <ele>545.69</ele>
        <time>2020-05-06T11:13:23Z</time>
      </trkpt>
      <trkpt lat="46.06602" lon="6.31071">
        <ele>546.65</ele>
        <time>2020-05-06T11:13:24Z</time>
      </trkpt>
      <trkpt lat="46.06604" lon="6.31055">
        <ele>549.05</ele>
        <time>2020-05-06T11:13:25Z</time>
      </trkpt>
      <trkpt lat="46.06605" lon="6.31045">
        <ele>551.45</ele>
        <time>2020-05-06T11:13:26Z</time>
      </trkpt>
      <trkpt lat="46.06606" lon="6.31027">
        <ele>553.86</ele>
        <time>2020-05-06T11:13:27Z</time>
      </trkpt>
      <trkpt lat="46.06608" lon="6.31018">
        <ele>556.26</ele>
        <time>2020-05-06T11:13:28Z</time>
      </trkpt>
      <trkpt lat="46.06624" lon="6.30943">
        <ele>567.8</ele>
        <time>2020-05-06T11:13:35Z</time>
      </trkpt>
      <trkpt lat="46.06627" lon="6.30931">
        <ele>567.8</ele>
        <time>2020-05-06T11:13:36Z</time>
      </trkpt>
      <trkpt lat="46.0663" lon="6.30918">
        <ele>567.32</ele>
        <time>2020-05-06T11:13:37Z</time>
      </trkpt>
      <trkpt lat="46.06647" lon="6.30911">
        <ele>567.32</ele>
        <time>2020-05-06T11:13:38Z</time>
      </trkpt>
      <trkpt lat="46.06651" lon="6.30911">
        <ele>567.8</ele>
        <time>2020-05-06T11:13:39Z</time>
      </trkpt>
      <trkpt lat="46.06663" lon="6.30908">
        <ele>568.76</ele>
        <time>2020-05-06T11:13:40Z</time>
      </trkpt>
      <trkpt lat="46.06675" lon="6.30905">
        <ele>570.68</ele>
        <time>2020-05-06T11:13:41Z</time>
      </trkpt>
      <trkpt lat="46.06686" lon="6.30902">
        <ele>573.08</ele>
        <time>2020-05-06T11:13:42Z</time>
      </trkpt>
      <trkpt lat="46.06692" lon="6.30901">
        <ele>575.97</ele>
        <time>2020-05-06T11:13:43Z</time>
      </trkpt>
      <trkpt lat="46.06696" lon="6.30894">
        <ele>577.89</ele>
        <time>2020-05-06T11:13:44Z</time>
      </trkpt>
      <trkpt lat="46.06703" lon="6.30883">
        <ele>579.33</ele>
        <time>2020-05-06T11:13:45Z</time>
      </trkpt>
      <trkpt lat="46.06749" lon="6.30813">
        <ele>582.22</ele>
        <time>2020-05-06T11:13:52Z</time>
      </trkpt>
      <trkpt lat="46.06752" lon="6.30808">
        <ele>581.73</ele>
        <time>2020-05-06T11:13:53Z</time>
      </trkpt>
      <trkpt lat="46.06752" lon="6.30808">
        <ele>581.25</ele>
        <time>2020-05-06T11:13:54Z</time>
      </trkpt>
      <trkpt lat="46.06752" lon="6.30808">
        <ele>580.29</ele>
        <time>2020-05-06T11:14:08Z</time>
      </trkpt>
      <trkpt lat="46.06741" lon="6.30795">
        <ele>578.37</ele>
        <time>2020-05-06T11:14:29Z</time>
      </trkpt>
    </trkseg>
  </trk>
</gpx>